PWSweather.com
Personal Weather Stations
Station Observations
METEOC500
Santo Antonio, FunchalPT 2020

Santo AntonioFunchalPT 2020

Lat: 32.678227, Lon: -16.945054

Elevation: 1669.94751

Station Type: WH Series

High Low Average
Temperature 71.6°F22.0°C 60.8°F16.0°C 65.1°F18.4°C
Dew Point 63.7°F17.6°C 55.0°F12.8°C 59.0°F15.0°C
Winds 12.3 mph 19.8 kmh Calm Calm 5.0 mph WSW8.0 kmh WSW
Wind Gusts 15.0 mph24.1 kmh 2.5 mph4.0 kmh 10.0 mph16.1 kmh
Humidity 86% 70% 81%
Pressure 30.31 in1026.4 mb 30.24 in1024.0 mb -
Precipitation 0.00 in0.0 mm - -
Hour Temp Dew Point Humidity Winds Wind Gusts Pressure Precip Precip Rate Daily Precip Total
12:00 AM 61.9°F16.6°C 56.3°F13.5°C 82% 8.5 mph NNW13.7 kmh NNW 10.1 mph16.3 kmh 30.25 in1024.4 mb 0.00 in0.0 mm 0.00 in0.0 mm 0.00 in0.0 mm
12:15 AM 61.7°F16.5°C 56.1°F13.4°C 82% 5.6 mph NNW9.0 kmh NNW 10.1 mph16.3 kmh 30.25 in1024.4 mb 0.00 in0.0 mm 0.00 in0.0 mm 0.00 in0.0 mm
12:30 AM 61.7°F16.5°C 56.1°F13.4°C 82% 6.3 mph NNW10.1 kmh NNW 10.1 mph16.3 kmh 30.24 in1024.0 mb 0.00 in0.0 mm 0.00 in0.0 mm 0.00 in0.0 mm
12:46 AM 61.9°F16.6°C 57.0°F13.9°C 84% 6.0 mph N9.7 kmh N 10.1 mph16.3 kmh 30.25 in1024.4 mb 0.00 in0.0 mm 0.00 in0.0 mm 0.00 in0.0 mm
01:01 AM 61.7°F16.5°C 56.8°F13.8°C 84% 6.5 mph N10.5 kmh N 10.1 mph16.3 kmh 30.25 in1024.4 mb 0.00 in0.0 mm 0.00 in0.0 mm 0.00 in0.0 mm
01:16 AM 61.3°F16.3°C 56.8°F13.8°C 85% 6.3 mph NNW10.1 kmh NNW 10.1 mph16.3 kmh 30.25 in1024.4 mb 0.00 in0.0 mm 0.00 in0.0 mm 0.00 in0.0 mm
01:31 AM 61.2°F16.2°C 56.7°F13.7°C 85% 6.0 mph NNW9.7 kmh NNW 10.1 mph16.3 kmh 30.25 in1024.4 mb 0.00 in0.0 mm 0.00 in0.0 mm 0.00 in0.0 mm
01:46 AM 61.2°F16.2°C 56.7°F13.7°C 85% 4.7 mph NNW7.6 kmh NNW 10.1 mph16.3 kmh 30.25 in1024.4 mb 0.00 in0.0 mm 0.00 in0.0 mm 0.00 in0.0 mm
02:01 AM 61.0°F16.1°C 56.1°F13.4°C 84% 4.7 mph N7.6 kmh N 10.1 mph16.3 kmh 30.25 in1024.4 mb 0.00 in0.0 mm 0.00 in0.0 mm 0.00 in0.0 mm
02:17 AM 61.2°F16.2°C 55.9°F13.3°C 83% 7.6 mph NNW12.2 kmh NNW 10.1 mph16.3 kmh 30.25 in1024.4 mb 0.00 in0.0 mm 0.00 in0.0 mm 0.00 in0.0 mm
02:32 AM 61.2°F16.2°C 55.9°F13.3°C 83% 6.0 mph NNW9.7 kmh NNW 10.1 mph16.3 kmh 30.25 in1024.4 mb 0.00 in0.0 mm 0.00 in0.0 mm 0.00 in0.0 mm
02:47 AM 61.3°F16.3°C 56.1°F13.4°C 83% 7.2 mph N11.6 kmh N 10.1 mph16.3 kmh 30.25 in1024.4 mb 0.00 in0.0 mm 0.00 in0.0 mm 0.00 in0.0 mm
03:02 AM 61.3°F16.3°C 55.8°F13.2°C 82% 5.4 mph NNW8.7 kmh NNW 10.1 mph16.3 kmh 30.25 in1024.4 mb 0.00 in0.0 mm 0.00 in0.0 mm 0.00 in0.0 mm
03:18 AM 61.0°F16.1°C 55.0°F12.8°C 81% 6.5 mph NW10.5 kmh NW 12.5 mph20.1 kmh 30.24 in1024.0 mb 0.00 in0.0 mm 0.00 in0.0 mm 0.00 in0.0 mm
03:33 AM 61.0°F16.1°C 55.4°F13.0°C 82% 5.6 mph NW9.0 kmh NW 10.1 mph16.3 kmh 30.24 in1024.0 mb 0.00 in0.0 mm 0.00 in0.0 mm 0.00 in0.0 mm
03:48 AM 61.2°F16.2°C 55.9°F13.3°C 83% 8.5 mph NNW13.7 kmh NNW 10.1 mph16.3 kmh 30.25 in1024.4 mb 0.00 in0.0 mm 0.00 in0.0 mm 0.00 in0.0 mm
04:03 AM 61.3°F16.3°C 56.8°F13.8°C 85% 5.6 mph NNW9.0 kmh NNW 10.1 mph16.3 kmh 30.25 in1024.4 mb 0.00 in0.0 mm 0.00 in0.0 mm 0.00 in0.0 mm
04:18 AM 61.2°F16.2°C 56.7°F13.7°C 85% 3.8 mph NNW6.1 kmh NNW 7.6 mph12.2 kmh 30.25 in1024.4 mb 0.00 in0.0 mm 0.00 in0.0 mm 0.00 in0.0 mm
04:34 AM 60.8°F16.0°C 56.7°F13.7°C 86% 4.5 mph NNW7.2 kmh NNW 7.6 mph12.2 kmh 30.25 in1024.4 mb 0.00 in0.0 mm 0.00 in0.0 mm 0.00 in0.0 mm
04:49 AM 60.8°F16.0°C 55.9°F13.3°C 84% 5.6 mph N9.0 kmh N 10.1 mph16.3 kmh 30.26 in1024.7 mb 0.00 in0.0 mm 0.00 in0.0 mm 0.00 in0.0 mm
05:04 AM 61.0°F16.1°C 56.1°F13.4°C 84% 6.0 mph NNW9.7 kmh NNW 10.1 mph16.3 kmh 30.26 in1024.7 mb 0.00 in0.0 mm 0.00 in0.0 mm 0.00 in0.0 mm
05:19 AM 61.0°F16.1°C 56.1°F13.4°C 84% 6.0 mph N9.7 kmh N 10.1 mph16.3 kmh 30.26 in1024.7 mb 0.00 in0.0 mm 0.00 in0.0 mm 0.00 in0.0 mm
05:34 AM 61.0°F16.1°C 56.1°F13.4°C 84% 6.3 mph NNW10.1 kmh NNW 10.1 mph16.3 kmh 30.27 in1025.1 mb 0.00 in0.0 mm 0.00 in0.0 mm 0.00 in0.0 mm
05:50 AM 61.0°F16.1°C 56.5°F13.6°C 85% 6.3 mph N10.1 kmh N 10.1 mph16.3 kmh 30.27 in1025.1 mb 0.00 in0.0 mm 0.00 in0.0 mm 0.00 in0.0 mm
06:05 AM 61.0°F16.1°C 56.5°F13.6°C 85% 6.3 mph NNW10.1 kmh NNW 10.1 mph16.3 kmh 30.27 in1025.1 mb 0.00 in0.0 mm 0.00 in0.0 mm 0.00 in0.0 mm
06:20 AM 61.0°F16.1°C 56.1°F13.4°C 84% 6.3 mph NNW10.1 kmh NNW 10.1 mph16.3 kmh 30.27 in1025.1 mb 0.00 in0.0 mm 0.00 in0.0 mm 0.00 in0.0 mm
06:35 AM 60.8°F16.0°C 55.6°F13.1°C 83% 9.4 mph NNW15.1 kmh NNW 12.5 mph20.1 kmh 30.28 in1025.4 mb 0.00 in0.0 mm 0.00 in0.0 mm 0.00 in0.0 mm
06:50 AM 61.2°F16.2°C 55.6°F13.1°C 82% 8.1 mph N13.0 kmh N 15.0 mph24.1 kmh 30.28 in1025.4 mb 0.00 in0.0 mm 0.00 in0.0 mm 0.00 in0.0 mm
07:05 AM 61.2°F16.2°C 55.6°F13.1°C 82% 7.2 mph N11.6 kmh N 10.1 mph16.3 kmh 30.28 in1025.4 mb 0.00 in0.0 mm 0.00 in0.0 mm 0.00 in0.0 mm
07:20 AM 61.2°F16.2°C 55.6°F13.1°C 82% 8.1 mph NNW13.0 kmh NNW 12.5 mph20.1 kmh 30.29 in1025.7 mb 0.00 in0.0 mm 0.00 in0.0 mm 0.00 in0.0 mm
07:36 AM 61.3°F16.3°C 55.4°F13.0°C 81% 6.3 mph NNW10.1 kmh NNW 10.1 mph16.3 kmh 30.28 in1025.4 mb 0.00 in0.0 mm 0.00 in0.0 mm 0.00 in0.0 mm
07:51 AM 61.5°F16.4°C 55.2°F12.9°C 80% 4.5 mph NNW7.2 kmh NNW 10.1 mph16.3 kmh 30.29 in1025.7 mb 0.00 in0.0 mm 0.00 in0.0 mm 0.00 in0.0 mm
08:06 AM 61.9°F16.6°C 55.9°F13.3°C 81% 5.4 mph N8.7 kmh N 7.6 mph12.2 kmh 30.29 in1025.7 mb 0.00 in0.0 mm 0.00 in0.0 mm 0.00 in0.0 mm
08:21 AM 62.1°F16.7°C 55.8°F13.2°C 80% 4.0 mph 6.4 kmh 10.1 mph16.3 kmh 30.29 in1025.7 mb 0.00 in0.0 mm 0.00 in0.0 mm 0.00 in0.0 mm
08:37 AM 62.8°F17.1°C 56.5°F13.6°C 80% 5.4 mph N8.7 kmh N 10.1 mph16.3 kmh 30.29 in1025.7 mb 0.00 in0.0 mm 0.00 in0.0 mm 0.00 in0.0 mm
08:52 AM 63.9°F17.7°C 56.8°F13.8°C 78% 4.5 mph N7.2 kmh N 7.6 mph12.2 kmh 30.30 in1026.1 mb 0.00 in0.0 mm 0.00 in0.0 mm 0.00 in0.0 mm
09:07 AM 65.5°F18.6°C 57.0°F13.9°C 74% 2.2 mph E3.5 kmh E 4.9 mph7.9 kmh 30.30 in1026.1 mb 0.00 in0.0 mm 0.00 in0.0 mm 0.00 in0.0 mm
09:22 AM 68.0°F20.0°C 58.3°F14.6°C 71% 3.1 mph E5.0 kmh E 7.6 mph12.2 kmh 30.30 in1026.1 mb 0.00 in0.0 mm 0.00 in0.0 mm 0.00 in0.0 mm
09:37 AM 69.8°F21.0°C 59.5°F15.3°C 70% 3.4 mph S5.5 kmh S 10.1 mph16.3 kmh 30.31 in1026.4 mb 0.00 in0.0 mm 0.00 in0.0 mm 0.00 in0.0 mm
09:52 AM 69.8°F21.0°C 59.5°F15.3°C 70% 1.8 mph SSE2.9 kmh SSE 7.6 mph12.2 kmh 30.30 in1026.1 mb 0.00 in0.0 mm 0.00 in0.0 mm 0.00 in0.0 mm
10:08 AM 70.3°F21.3°C 60.4°F15.8°C 71% 3.1 mph SE5.0 kmh SE 10.1 mph16.3 kmh 30.30 in1026.1 mb 0.00 in0.0 mm 0.00 in0.0 mm 0.00 in0.0 mm
10:23 AM 70.5°F21.4°C 61.0°F16.1°C 72% 1.8 mph S2.9 kmh S 7.6 mph12.2 kmh 30.30 in1026.1 mb 0.00 in0.0 mm 0.00 in0.0 mm 0.00 in0.0 mm
10:38 AM 69.8°F21.0°C 61.5°F16.4°C 75% 2.9 mph SSW4.7 kmh SSW 10.1 mph16.3 kmh 30.30 in1026.1 mb 0.00 in0.0 mm 0.00 in0.0 mm 0.00 in0.0 mm
10:53 AM 69.4°F20.8°C 61.5°F16.4°C 76% 3.1 mph SSW5.0 kmh SSW 10.1 mph16.3 kmh 30.30 in1026.1 mb 0.00 in0.0 mm 0.00 in0.0 mm 0.00 in0.0 mm
11:08 AM 69.6°F20.9°C 60.3°F15.7°C 72% 6.3 mph SE10.1 kmh SE 10.1 mph16.3 kmh 30.30 in1026.1 mb 0.00 in0.0 mm 0.00 in0.0 mm 0.00 in0.0 mm
11:24 AM 69.8°F21.0°C 62.2°F16.8°C 77% 6.0 mph SSE9.7 kmh SSE 12.5 mph20.1 kmh 30.30 in1026.1 mb 0.00 in0.0 mm 0.00 in0.0 mm 0.00 in0.0 mm
11:39 AM 69.4°F20.8°C 61.9°F16.6°C 77% 4.7 mph WSW7.6 kmh WSW 12.5 mph20.1 kmh 30.30 in1026.1 mb 0.00 in0.0 mm 0.00 in0.0 mm 0.00 in0.0 mm
11:54 AM 69.1°F20.6°C 61.9°F16.6°C 78% 4.9 mph SSE7.9 kmh SSE 10.1 mph16.3 kmh 30.30 in1026.1 mb 0.00 in0.0 mm 0.00 in0.0 mm 0.00 in0.0 mm
12:09 PM 68.5°F20.3°C 61.7°F16.5°C 79% 2.9 mph ENE4.7 kmh ENE 15.0 mph24.1 kmh 30.30 in1026.1 mb 0.00 in0.0 mm 0.00 in0.0 mm 0.00 in0.0 mm
12:24 PM 68.0°F20.0°C 61.2°F16.2°C 79% 4.5 mph ESE7.2 kmh ESE 12.5 mph20.1 kmh 30.30 in1026.1 mb 0.00 in0.0 mm 0.00 in0.0 mm 0.00 in0.0 mm
12:39 PM 67.8°F19.9°C 60.6°F15.9°C 78% 3.8 mph SW6.1 kmh SW 12.5 mph20.1 kmh 30.30 in1026.1 mb 0.00 in0.0 mm 0.00 in0.0 mm 0.00 in0.0 mm
12:54 PM 68.4°F20.2°C 61.2°F16.2°C 78% 6.5 mph ESE10.5 kmh ESE 12.5 mph20.1 kmh 30.30 in1026.1 mb 0.00 in0.0 mm 0.00 in0.0 mm 0.00 in0.0 mm
01:10 PM 69.1°F20.6°C 60.1°F15.6°C 73% 3.1 mph ESE5.0 kmh ESE 10.1 mph16.3 kmh 30.29 in1025.7 mb 0.00 in0.0 mm 0.00 in0.0 mm 0.00 in0.0 mm
01:25 PM 70.5°F21.4°C 60.3°F15.7°C 70% 12.3 mph E19.8 kmh E 12.5 mph20.1 kmh 30.29 in1025.7 mb 0.00 in0.0 mm 0.00 in0.0 mm 0.00 in0.0 mm
01:40 PM 71.4°F21.9°C 61.2°F16.2°C 70% 6.0 mph SSW9.7 kmh SSW 15.0 mph24.1 kmh 30.29 in1025.7 mb 0.00 in0.0 mm 0.00 in0.0 mm 0.00 in0.0 mm
01:55 PM 71.2°F21.8°C 62.1°F16.7°C 73% 6.3 mph SE10.1 kmh SE 15.0 mph24.1 kmh 30.29 in1025.7 mb 0.00 in0.0 mm 0.00 in0.0 mm 0.00 in0.0 mm
02:10 PM 71.4°F21.9°C 61.5°F16.4°C 71% 2.9 mph SSW4.7 kmh SSW 15.0 mph24.1 kmh 30.29 in1025.7 mb 0.00 in0.0 mm 0.00 in0.0 mm 0.00 in0.0 mm
02:25 PM 71.6°F22.0°C 63.7°F17.6°C 76% 6.9 mph S11.1 kmh S 15.0 mph24.1 kmh 30.28 in1025.4 mb 0.00 in0.0 mm 0.00 in0.0 mm 0.00 in0.0 mm
02:40 PM 70.3°F21.3°C 62.4°F16.9°C 76% 7.6 mph ESE12.2 kmh ESE 12.5 mph20.1 kmh 30.28 in1025.4 mb 0.00 in0.0 mm 0.00 in0.0 mm 0.00 in0.0 mm
02:56 PM 69.3°F20.7°C 61.7°F16.5°C 77% 4.9 mph S7.9 kmh S 12.5 mph20.1 kmh 30.28 in1025.4 mb 0.00 in0.0 mm 0.00 in0.0 mm 0.00 in0.0 mm
03:11 PM 69.8°F21.0°C 60.4°F15.8°C 72% 5.4 mph S8.7 kmh S 15.0 mph24.1 kmh 30.27 in1025.1 mb 0.00 in0.0 mm 0.00 in0.0 mm 0.00 in0.0 mm
03:26 PM 70.9°F21.6°C 63.0°F17.2°C 76% 3.4 mph SW5.5 kmh SW 10.1 mph16.3 kmh 30.27 in1025.1 mb 0.00 in0.0 mm 0.00 in0.0 mm 0.00 in0.0 mm
03:41 PM 70.3°F21.3°C 62.8°F17.1°C 77% 3.8 mph S6.1 kmh S 10.1 mph16.3 kmh 30.27 in1025.1 mb 0.00 in0.0 mm 0.00 in0.0 mm 0.00 in0.0 mm
03:56 PM 69.3°F20.7°C 62.8°F17.1°C 80% 2.5 mph SE4.0 kmh SE 12.5 mph20.1 kmh 30.27 in1025.1 mb 0.00 in0.0 mm 0.00 in0.0 mm 0.00 in0.0 mm
04:12 PM 68.5°F20.3°C 62.4°F16.9°C 81% 5.4 mph SE8.7 kmh SE 12.5 mph20.1 kmh 30.27 in1025.1 mb 0.00 in0.0 mm 0.00 in0.0 mm 0.00 in0.0 mm
04:27 PM 68.2°F20.1°C 62.1°F16.7°C 81% 3.8 mph S6.1 kmh S 12.5 mph20.1 kmh 30.27 in1025.1 mb 0.00 in0.0 mm 0.00 in0.0 mm 0.00 in0.0 mm
04:42 PM 67.6°F19.8°C 61.9°F16.6°C 82% 1.3 mph SE2.1 kmh SE 10.1 mph16.3 kmh 30.27 in1025.1 mb 0.00 in0.0 mm 0.00 in0.0 mm 0.00 in0.0 mm
04:57 PM 67.6°F19.8°C 61.5°F16.4°C 81% 3.8 mph E6.1 kmh E 7.6 mph12.2 kmh 30.27 in1025.1 mb 0.00 in0.0 mm 0.00 in0.0 mm 0.00 in0.0 mm
05:12 PM 67.5°F19.7°C 61.7°F16.5°C 82% 2.9 mph SE4.7 kmh SE 10.1 mph16.3 kmh 30.27 in1025.1 mb 0.00 in0.0 mm 0.00 in0.0 mm 0.00 in0.0 mm
05:28 PM 67.5°F19.7°C 61.2°F16.2°C 80% 1.3 mph S2.1 kmh S 10.1 mph16.3 kmh 30.27 in1025.1 mb 0.00 in0.0 mm 0.00 in0.0 mm 0.00 in0.0 mm
05:43 PM 67.6°F19.8°C 61.9°F16.6°C 82% 0.2 mph SE0.3 kmh SE 4.9 mph7.9 kmh 30.27 in1025.1 mb 0.00 in0.0 mm 0.00 in0.0 mm 0.00 in0.0 mm
05:58 PM 67.5°F19.7°C 61.3°F16.3°C 81% 1.8 mph ESE2.9 kmh ESE 4.9 mph7.9 kmh 30.26 in1024.7 mb 0.00 in0.0 mm 0.00 in0.0 mm 0.00 in0.0 mm
06:14 PM 67.3°F19.6°C 61.5°F16.4°C 82% Calm Calm 7.6 mph12.2 kmh 30.26 in1024.7 mb 0.00 in0.0 mm 0.00 in0.0 mm 0.00 in0.0 mm
06:29 PM 67.1°F19.5°C 61.3°F16.3°C 82% 3.1 mph SSE5.0 kmh SSE 4.9 mph7.9 kmh 30.26 in1024.7 mb 0.00 in0.0 mm 0.00 in0.0 mm 0.00 in0.0 mm
06:44 PM 67.1°F19.5°C 61.3°F16.3°C 82% 0.7 mph SSW1.1 kmh SSW 4.9 mph7.9 kmh 30.27 in1025.1 mb 0.00 in0.0 mm 0.00 in0.0 mm 0.00 in0.0 mm
06:59 PM 66.7°F19.3°C 61.7°F16.5°C 84% 0.2 mph S0.3 kmh S 7.6 mph12.2 kmh 30.26 in1024.7 mb 0.00 in0.0 mm 0.00 in0.0 mm 0.00 in0.0 mm
07:14 PM 66.4°F19.1°C 61.7°F16.5°C 85% 2.9 mph S4.7 kmh S 7.6 mph12.2 kmh 30.27 in1025.1 mb 0.00 in0.0 mm 0.00 in0.0 mm 0.00 in0.0 mm
07:30 PM 65.8°F18.8°C 60.8°F16.0°C 84% 4.7 mph SE7.6 kmh SE 10.1 mph16.3 kmh 30.26 in1024.7 mb 0.00 in0.0 mm 0.00 in0.0 mm 0.00 in0.0 mm
07:45 PM 65.5°F18.6°C 60.8°F16.0°C 85% 2.2 mph S3.5 kmh S 7.6 mph12.2 kmh 30.26 in1024.7 mb 0.00 in0.0 mm 0.00 in0.0 mm 0.00 in0.0 mm
08:00 PM 65.5°F18.6°C 61.2°F16.2°C 86% 2.2 mph SE3.5 kmh SE 7.6 mph12.2 kmh 30.26 in1024.7 mb 0.00 in0.0 mm 0.00 in0.0 mm 0.00 in0.0 mm
08:15 PM 65.1°F18.4°C 60.8°F16.0°C 86% 0.7 mph S1.1 kmh S 4.9 mph7.9 kmh 30.27 in1025.1 mb 0.00 in0.0 mm 0.00 in0.0 mm 0.00 in0.0 mm
08:30 PM 64.9°F18.3°C 60.6°F15.9°C 86% Calm Calm 2.5 mph4.0 kmh 30.28 in1025.4 mb 0.00 in0.0 mm 0.00 in0.0 mm 0.00 in0.0 mm
08:46 PM 64.9°F18.3°C 60.6°F15.9°C 86% Calm Calm 2.5 mph4.0 kmh 30.29 in1025.7 mb 0.00 in0.0 mm 0.00 in0.0 mm 0.00 in0.0 mm
09:01 PM 64.9°F18.3°C 60.6°F15.9°C 86% Calm Calm 2.5 mph4.0 kmh 30.29 in1025.7 mb 0.00 in0.0 mm 0.00 in0.0 mm 0.00 in0.0 mm
09:16 PM 64.9°F18.3°C 60.6°F15.9°C 86% 0.2 mph NW0.3 kmh NW 2.5 mph4.0 kmh 30.30 in1026.1 mb 0.00 in0.0 mm 0.00 in0.0 mm 0.00 in0.0 mm
09:31 PM 64.4°F18.0°C 59.7°F15.4°C 85% 3.1 mph NW5.0 kmh NW 4.9 mph7.9 kmh 30.30 in1026.1 mb 0.00 in0.0 mm 0.00 in0.0 mm 0.00 in0.0 mm
09:46 PM 63.7°F17.6°C 59.0°F15.0°C 85% 3.4 mph NNW5.5 kmh NNW 7.6 mph12.2 kmh 30.29 in1025.7 mb 0.00 in0.0 mm 0.00 in0.0 mm 0.00 in0.0 mm
10:02 PM 63.1°F17.3°C 58.6°F14.8°C 85% 5.4 mph NNW8.7 kmh NNW 7.6 mph12.2 kmh 30.30 in1026.1 mb 0.00 in0.0 mm 0.00 in0.0 mm 0.00 in0.0 mm
10:17 PM 63.0°F17.2°C 58.5°F14.7°C 85% 4.9 mph NNW7.9 kmh NNW 7.6 mph12.2 kmh 30.30 in1026.1 mb 0.00 in0.0 mm 0.00 in0.0 mm 0.00 in0.0 mm
10:32 PM 62.8°F17.1°C 57.9°F14.4°C 84% 6.5 mph N10.5 kmh N 10.1 mph16.3 kmh 30.30 in1026.1 mb 0.00 in0.0 mm 0.00 in0.0 mm 0.00 in0.0 mm
10:47 PM 62.8°F17.1°C 58.3°F14.6°C 85% 4.5 mph NNW7.2 kmh NNW 10.1 mph16.3 kmh 30.29 in1025.7 mb 0.00 in0.0 mm 0.00 in0.0 mm 0.00 in0.0 mm
11:03 PM 62.8°F17.1°C 58.3°F14.6°C 85% 4.9 mph N7.9 kmh N 10.1 mph16.3 kmh 30.29 in1025.7 mb 0.00 in0.0 mm 0.00 in0.0 mm 0.00 in0.0 mm
11:18 PM 62.6°F17.0°C 57.4°F14.1°C 83% 4.9 mph NNW7.9 kmh NNW 10.1 mph16.3 kmh 30.29 in1025.7 mb 0.00 in0.0 mm 0.00 in0.0 mm 0.00 in0.0 mm
11:33 PM 62.4°F16.9°C 57.2°F14.0°C 83% 6.9 mph NNW11.1 kmh NNW 7.6 mph12.2 kmh 30.29 in1025.7 mb 0.00 in0.0 mm 0.00 in0.0 mm 0.00 in0.0 mm
11:48 PM 62.2°F16.8°C 57.0°F13.9°C 83% 5.6 mph NNW9.0 kmh NNW 10.1 mph16.3 kmh 30.29 in1025.7 mb 0.00 in0.0 mm 0.00 in0.0 mm 0.00 in0.0 mm